sensor_id;sensor_type;location;lat;lon;timestamp;P1;durP1;ratioP1;P2;durP2;ratioP2
29196;SDS011;62796;42.654;23.316;2023-04-24T00:00:53;17.08;;;12.15;;
29196;SDS011;62796;42.654;23.316;2023-04-24T00:03:25;16.00;;;11.98;;
29196;SDS011;62796;42.654;23.316;2023-04-24T00:05:52;18.95;;;12.18;;
29196;SDS011;62796;42.654;23.316;2023-04-24T00:08:18;19.75;;;12.77;;
29196;SDS011;62796;42.654;23.316;2023-04-24T00:10:43;18.40;;;13.20;;
29196;SDS011;62796;42.654;23.316;2023-04-24T00:13:09;21.27;;;12.07;;
29196;SDS011;62796;42.654;23.316;2023-04-24T00:15:34;19.10;;;12.10;;
29196;SDS011;62796;42.654;23.316;2023-04-24T00:18:00;18.02;;;12.10;;
29196;SDS011;62796;42.654;23.316;2023-04-24T00:20:26;19.50;;;12.07;;
29196;SDS011;62796;42.654;23.316;2023-04-24T00:22:53;18.73;;;12.90;;
29196;SDS011;62796;42.654;23.316;2023-04-24T00:25:18;14.05;;;11.90;;
29196;SDS011;62796;42.654;23.316;2023-04-24T00:27:44;16.55;;;11.90;;
29196;SDS011;62796;42.654;23.316;2023-04-24T00:30:09;18.33;;;12.65;;
29196;SDS011;62796;42.654;23.316;2023-04-24T00:32:35;15.18;;;11.82;;
29196;SDS011;62796;42.654;23.316;2023-04-24T00:35:00;17.67;;;11.98;;
29196;SDS011;62796;42.654;23.316;2023-04-24T00:37:26;19.00;;;11.70;;
29196;SDS011;62796;42.654;23.316;2023-04-24T00:39:51;21.00;;;12.73;;
29196;SDS011;62796;42.654;23.316;2023-04-24T00:42:16;17.80;;;11.55;;
29196;SDS011;62796;42.654;23.316;2023-04-24T00:44:42;16.52;;;12.63;;
29196;SDS011;62796;42.654;23.316;2023-04-24T00:47:08;18.73;;;12.30;;
29196;SDS011;62796;42.654;23.316;2023-04-24T00:49:33;20.80;;;12.15;;
29196;SDS011;62796;42.654;23.316;2023-04-24T00:51:58;18.80;;;12.00;;
29196;SDS011;62796;42.654;23.316;2023-04-24T00:54:24;16.52;;;12.25;;
29196;SDS011;62796;42.654;23.316;2023-04-24T00:56:50;18.38;;;12.45;;
29196;SDS011;62796;42.654;23.316;2023-04-24T00:59:16;17.33;;;12.50;;
29196;SDS011;62796;42.654;23.316;2023-04-24T01:01:42;14.15;;;12.10;;
29196;SDS011;62796;42.654;23.316;2023-04-24T01:04:09;18.83;;;12.38;;
29196;SDS011;62796;42.654;23.316;2023-04-24T01:06:36;21.50;;;11.32;;
29196;SDS011;62796;42.654;23.316;2023-04-24T01:09:04;16.15;;;11.48;;
29196;SDS011;62796;42.654;23.316;2023-04-24T01:11:30;17.85;;;11.80;;
29196;SDS011;62796;42.654;23.316;2023-04-24T01:13:56;16.33;;;11.77;;
29196;SDS011;62796;42.654;23.316;2023-04-24T01:16:23;16.92;;;12.38;;
29196;SDS011;62796;42.654;23.316;2023-04-24T01:18:48;18.52;;;12.68;;
29196;SDS011;62796;42.654;23.316;2023-04-24T01:21:14;17.25;;;12.65;;
29196;SDS011;62796;42.654;23.316;2023-04-24T01:23:44;15.10;;;10.88;;
29196;SDS011;62796;42.654;23.316;2023-04-24T01:26:11;17.50;;;10.43;;
29196;SDS011;62796;42.654;23.316;2023-04-24T01:28:37;21.45;;;11.25;;
29196;SDS011;62796;42.654;23.316;2023-04-24T01:31:02;19.35;;;10.90;;
29196;SDS011;62796;42.654;23.316;2023-04-24T01:33:28;19.40;;;10.85;;
29196;SDS011;62796;42.654;23.316;2023-04-24T01:35:53;13.60;;;9.68;;
29196;SDS011;62796;42.654;23.316;2023-04-24T01:38:19;15.95;;;8.30;;
29196;SDS011;62796;42.654;23.316;2023-04-24T01:40:45;13.60;;;8.88;;
29196;SDS011;62796;42.654;23.316;2023-04-24T01:43:11;14.18;;;8.80;;
29196;SDS011;62796;42.654;23.316;2023-04-24T01:45:37;14.60;;;9.13;;
29196;SDS011;62796;42.654;23.316;2023-04-24T01:48:03;12.57;;;8.73;;
29196;SDS011;62796;42.654;23.316;2023-04-24T01:50:28;12.75;;;9.40;;
29196;SDS011;62796;42.654;23.316;2023-04-24T01:52:54;12.27;;;8.35;;
29196;SDS011;62796;42.654;23.316;2023-04-24T01:55:19;15.55;;;8.82;;
29196;SDS011;62796;42.654;23.316;2023-04-24T01:57:44;15.60;;;10.25;;
29196;SDS011;62796;42.654;23.316;2023-04-24T02:00:10;15.13;;;10.52;;
29196;SDS011;62796;42.654;23.316;2023-04-24T02:02:37;16.15;;;10.05;;
29196;SDS011;62796;42.654;23.316;2023-04-24T02:05:03;15.40;;;11.55;;
29196;SDS011;62796;42.654;23.316;2023-04-24T02:07:31;16.60;;;12.48;;
29196;SDS011;62796;42.654;23.316;2023-04-24T02:09:57;17.30;;;11.93;;
29196;SDS011;62796;42.654;23.316;2023-04-24T02:12:23;18.80;;;12.63;;
29196;SDS011;62796;42.654;23.316;2023-04-24T02:14:48;17.42;;;11.98;;
29196;SDS011;62796;42.654;23.316;2023-04-24T02:17:14;18.75;;;12.18;;
29196;SDS011;62796;42.654;23.316;2023-04-24T02:19:41;16.40;;;12.13;;
29196;SDS011;62796;42.654;23.316;2023-04-24T02:22:06;18.88;;;13.02;;
29196;SDS011;62796;42.654;23.316;2023-04-24T02:24:32;17.73;;;12.43;;
29196;SDS011;62796;42.654;23.316;2023-04-24T02:26:57;16.15;;;12.75;;
29196;SDS011;62796;42.654;23.316;2023-04-24T02:29:23;19.67;;;12.77;;
29196;SDS011;62796;42.654;23.316;2023-04-24T02:31:48;16.52;;;12.25;;
29196;SDS011;62796;42.654;23.316;2023-04-24T02:34:14;16.55;;;12.48;;
29196;SDS011;62796;42.654;23.316;2023-04-24T02:36:39;21.83;;;13.93;;
29196;SDS011;62796;42.654;23.316;2023-04-24T02:39:04;17.13;;;13.00;;
29196;SDS011;62796;42.654;23.316;2023-04-24T02:41:30;16.73;;;12.52;;
29196;SDS011;62796;42.654;23.316;2023-04-24T02:44:00;17.95;;;12.48;;
29196;SDS011;62796;42.654;23.316;2023-04-24T02:46:25;24.00;;;12.77;;
29196;SDS011;62796;42.654;23.316;2023-04-24T02:48:51;23.75;;;14.48;;
29196;SDS011;62796;42.654;23.316;2023-04-24T02:51:16;23.13;;;15.95;;
29196;SDS011;62796;42.654;23.316;2023-04-24T02:53:42;21.25;;;13.95;;
29196;SDS011;62796;42.654;23.316;2023-04-24T02:56:08;20.63;;;13.48;;
29196;SDS011;62796;42.654;23.316;2023-04-24T02:58:33;21.45;;;13.43;;
29196;SDS011;62796;42.654;23.316;2023-04-24T03:00:58;20.10;;;13.57;;
29196;SDS011;62796;42.654;23.316;2023-04-24T03:03:25;17.30;;;13.05;;
29196;SDS011;62796;42.654;23.316;2023-04-24T03:05:50;18.35;;;13.68;;
29196;SDS011;62796;42.654;23.316;2023-04-24T03:08:16;18.10;;;12.80;;
29196;SDS011;62796;42.654;23.316;2023-04-24T03:10:41;20.00;;;13.85;;
29196;SDS011;62796;42.654;23.316;2023-04-24T03:13:07;18.30;;;12.40;;
29196;SDS011;62796;42.654;23.316;2023-04-24T03:15:32;18.50;;;11.80;;
29196;SDS011;62796;42.654;23.316;2023-04-24T03:17:57;17.92;;;12.05;;
29196;SDS011;62796;42.654;23.316;2023-04-24T03:20:23;19.27;;;12.65;;
29196;SDS011;62796;42.654;23.316;2023-04-24T03:22:49;18.65;;;12.80;;
29196;SDS011;62796;42.654;23.316;2023-04-24T03:25:14;18.13;;;12.55;;
29196;SDS011;62796;42.654;23.316;2023-04-24T03:27:40;17.35;;;11.52;;
29196;SDS011;62796;42.654;23.316;2023-04-24T03:30:08;16.95;;;11.80;;
29196;SDS011;62796;42.654;23.316;2023-04-24T03:32:34;15.30;;;11.68;;
29196;SDS011;62796;42.654;23.316;2023-04-24T03:35:00;19.42;;;11.32;;
29196;SDS011;62796;42.654;23.316;2023-04-24T03:37:25;18.73;;;11.48;;
29196;SDS011;62796;42.654;23.316;2023-04-24T03:39:51;19.48;;;11.85;;
29196;SDS011;62796;42.654;23.316;2023-04-24T03:42:17;20.92;;;12.57;;
29196;SDS011;62796;42.654;23.316;2023-04-24T03:44:42;32.13;;;14.15;;
29196;SDS011;62796;42.654;23.316;2023-04-24T03:47:07;34.83;;;16.75;;
29196;SDS011;62796;42.654;23.316;2023-04-24T03:49:33;32.65;;;16.65;;
29196;SDS011;62796;42.654;23.316;2023-04-24T03:51:58;51.65;;;22.67;;
29196;SDS011;62796;42.654;23.316;2023-04-24T03:54:24;120.53;;;49.13;;
29196;SDS011;62796;42.654;23.316;2023-04-24T03:56:49;46.38;;;22.35;;
29196;SDS011;62796;42.654;23.316;2023-04-24T03:59:14;31.88;;;15.93;;
29196;SDS011;62796;42.654;23.316;2023-04-24T04:01:40;34.42;;;17.50;;
29196;SDS011;62796;42.654;23.316;2023-04-24T04:04:06;34.42;;;18.17;;
29196;SDS011;62796;42.654;23.316;2023-04-24T04:06:32;29.38;;;18.33;;
29196;SDS011;62796;42.654;23.316;2023-04-24T04:08:58;24.65;;;15.20;;
29196;SDS011;62796;42.654;23.316;2023-04-24T04:11:24;24.67;;;14.98;;
29196;SDS011;62796;42.654;23.316;2023-04-24T04:13:50;28.13;;;15.32;;
29196;SDS011;62796;42.654;23.316;2023-04-24T04:16:16;31.20;;;17.08;;
29196;SDS011;62796;42.654;23.316;2023-04-24T04:18:44;23.88;;;14.68;;
29196;SDS011;62796;42.654;23.316;2023-04-24T04:21:10;28.90;;;15.30;;
29196;SDS011;62796;42.654;23.316;2023-04-24T04:23:36;24.55;;;13.88;;
29196;SDS011;62796;42.654;23.316;2023-04-24T04:26:01;29.90;;;12.75;;
29196;SDS011;62796;42.654;23.316;2023-04-24T04:28:29;25.80;;;12.90;;
29196;SDS011;62796;42.654;23.316;2023-04-24T04:30:56;27.75;;;14.10;;
29196;SDS011;62796;42.654;23.316;2023-04-24T04:33:23;27.50;;;12.75;;
29196;SDS011;62796;42.654;23.316;2023-04-24T04:35:48;23.63;;;13.20;;
29196;SDS011;62796;42.654;23.316;2023-04-24T04:38:14;23.35;;;12.55;;
29196;SDS011;62796;42.654;23.316;2023-04-24T04:40:41;25.02;;;11.82;;
29196;SDS011;62796;42.654;23.316;2023-04-24T04:43:07;20.35;;;12.25;;
29196;SDS011;62796;42.654;23.316;2023-04-24T04:45:33;30.27;;;15.52;;
29196;SDS011;62796;42.654;23.316;2023-04-24T04:47:59;25.75;;;13.15;;
29196;SDS011;62796;42.654;23.316;2023-04-24T04:50:26;22.63;;;13.55;;
29196;SDS011;62796;42.654;23.316;2023-04-24T04:52:51;29.95;;;13.50;;
29196;SDS011;62796;42.654;23.316;2023-04-24T04:55:17;27.48;;;13.43;;
29196;SDS011;62796;42.654;23.316;2023-04-24T04:57:45;30.10;;;15.98;;
29196;SDS011;62796;42.654;23.316;2023-04-24T05:00:11;27.83;;;15.15;;
29196;SDS011;62796;42.654;23.316;2023-04-24T05:02:37;38.45;;;17.10;;
29196;SDS011;62796;42.654;23.316;2023-04-24T05:05:03;35.28;;;15.93;;
29196;SDS011;62796;42.654;23.316;2023-04-24T05:07:29;28.45;;;14.50;;
29196;SDS011;62796;42.654;23.316;2023-04-24T05:09:54;23.42;;;13.57;;
29196;SDS011;62796;42.654;23.316;2023-04-24T05:12:20;23.25;;;11.48;;
29196;SDS011;62796;42.654;23.316;2023-04-24T05:14:45;22.33;;;11.18;;
29196;SDS011;62796;42.654;23.316;2023-04-24T05:17:10;21.85;;;11.20;;
29196;SDS011;62796;42.654;23.316;2023-04-24T05:19:36;27.00;;;10.88;;
29196;SDS011;62796;42.654;23.316;2023-04-24T05:22:03;16.02;;;9.05;;
29196;SDS011;62796;42.654;23.316;2023-04-24T05:24:32;12.18;;;8.57;;
29196;SDS011;62796;42.654;23.316;2023-04-24T05:26:58;17.90;;;8.77;;
29196;SDS011;62796;42.654;23.316;2023-04-24T05:29:24;17.08;;;8.80;;
29196;SDS011;62796;42.654;23.316;2023-04-24T05:31:50;14.60;;;7.93;;
29196;SDS011;62796;42.654;23.316;2023-04-24T05:34:15;16.27;;;8.60;;
29196;SDS011;62796;42.654;23.316;2023-04-24T05:36:41;22.23;;;8.50;;
29196;SDS011;62796;42.654;23.316;2023-04-24T05:39:07;13.73;;;8.02;;
29196;SDS011;62796;42.654;23.316;2023-04-24T05:41:33;19.92;;;9.48;;
29196;SDS011;62796;42.654;23.316;2023-04-24T05:43:59;19.58;;;10.80;;
29196;SDS011;62796;42.654;23.316;2023-04-24T05:46:24;23.50;;;10.85;;
29196;SDS011;62796;42.654;23.316;2023-04-24T05:48:50;22.90;;;10.60;;
29196;SDS011;62796;42.654;23.316;2023-04-24T05:51:15;19.67;;;11.25;;
29196;SDS011;62796;42.654;23.316;2023-04-24T05:53:41;21.20;;;11.00;;
29196;SDS011;62796;42.654;23.316;2023-04-24T05:56:06;31.55;;;10.70;;
29196;SDS011;62796;42.654;23.316;2023-04-24T05:58:32;22.75;;;9.88;;
29196;SDS011;62796;42.654;23.316;2023-04-24T06:00:57;19.08;;;9.07;;
29196;SDS011;62796;42.654;23.316;2023-04-24T06:03:23;19.65;;;9.15;;
29196;SDS011;62796;42.654;23.316;2023-04-24T06:05:52;20.20;;;9.80;;
29196;SDS011;62796;42.654;23.316;2023-04-24T06:08:18;24.00;;;9.75;;
29196;SDS011;62796;42.654;23.316;2023-04-24T06:10:43;13.57;;;8.25;;
29196;SDS011;62796;42.654;23.316;2023-04-24T06:13:09;17.52;;;8.85;;
29196;SDS011;62796;42.654;23.316;2023-04-24T06:15:34;15.32;;;8.35;;
29196;SDS011;62796;42.654;23.316;2023-04-24T06:18:00;15.90;;;10.00;;
29196;SDS011;62796;42.654;23.316;2023-04-24T06:20:25;21.67;;;12.00;;
29196;SDS011;62796;42.654;23.316;2023-04-24T06:22:51;16.77;;;9.80;;
29196;SDS011;62796;42.654;23.316;2023-04-24T06:25:16;17.35;;;9.50;;
29196;SDS011;62796;42.654;23.316;2023-04-24T06:27:42;15.80;;;9.18;;
29196;SDS011;62796;42.654;23.316;2023-04-24T06:30:07;15.13;;;9.00;;
29196;SDS011;62796;42.654;23.316;2023-04-24T06:32:33;13.43;;;8.98;;
29196;SDS011;62796;42.654;23.316;2023-04-24T06:34:58;17.98;;;9.88;;
29196;SDS011;62796;42.654;23.316;2023-04-24T06:37:24;16.98;;;9.30;;
29196;SDS011;62796;42.654;23.316;2023-04-24T06:39:49;17.63;;;9.10;;
29196;SDS011;62796;42.654;23.316;2023-04-24T06:42:15;15.40;;;9.40;;
29196;SDS011;62796;42.654;23.316;2023-04-24T06:44:40;18.52;;;9.77;;
29196;SDS011;62796;42.654;23.316;2023-04-24T06:47:06;16.90;;;10.38;;
29196;SDS011;62796;42.654;23.316;2023-04-24T06:49:34;19.30;;;10.50;;
29196;SDS011;62796;42.654;23.316;2023-04-24T06:52:00;14.98;;;10.35;;
29196;SDS011;62796;42.654;23.316;2023-04-24T06:54:25;25.95;;;10.95;;
29196;SDS011;62796;42.654;23.316;2023-04-24T06:56:51;24.30;;;10.88;;
29196;SDS011;62796;42.654;23.316;2023-04-24T06:59:17;22.60;;;11.23;;
29196;SDS011;62796;42.654;23.316;2023-04-24T07:01:42;15.55;;;9.40;;
29196;SDS011;62796;42.654;23.316;2023-04-24T07:04:08;17.95;;;10.10;;
29196;SDS011;62796;42.654;23.316;2023-04-24T07:06:33;23.65;;;12.00;;
29196;SDS011;62796;42.654;23.316;2023-04-24T07:09:00;20.10;;;11.68;;
29196;SDS011;62796;42.654;23.316;2023-04-24T07:11:26;19.02;;;11.82;;
29196;SDS011;62796;42.654;23.316;2023-04-24T07:13:54;18.13;;;10.85;;
29196;SDS011;62796;42.654;23.316;2023-04-24T07:16:20;23.23;;;10.50;;
29196;SDS011;62796;42.654;23.316;2023-04-24T07:18:45;20.70;;;11.63;;
29196;SDS011;62796;42.654;23.316;2023-04-24T07:21:10;25.35;;;10.95;;
29196;SDS011;62796;42.654;23.316;2023-04-24T07:23:36;19.45;;;10.00;;
29196;SDS011;62796;42.654;23.316;2023-04-24T07:26:02;18.20;;;9.45;;
29196;SDS011;62796;42.654;23.316;2023-04-24T07:28:27;12.85;;;9.90;;
29196;SDS011;62796;42.654;23.316;2023-04-24T07:30:56;18.48;;;10.10;;
29196;SDS011;62796;42.654;23.316;2023-04-24T07:33:22;20.48;;;9.85;;
29196;SDS011;62796;42.654;23.316;2023-04-24T07:35:47;18.52;;;9.02;;
29196;SDS011;62796;42.654;23.316;2023-04-24T07:38:13;20.50;;;10.20;;
29196;SDS011;62796;42.654;23.316;2023-04-24T07:40:38;16.98;;;9.02;;
29196;SDS011;62796;42.654;23.316;2023-04-24T07:43:04;16.95;;;9.45;;
29196;SDS011;62796;42.654;23.316;2023-04-24T07:45:29;17.65;;;10.10;;
29196;SDS011;62796;42.654;23.316;2023-04-24T07:47:56;12.50;;;8.25;;
29196;SDS011;62796;42.654;23.316;2023-04-24T07:50:22;12.50;;;8.32;;
29196;SDS011;62796;42.654;23.316;2023-04-24T07:52:47;14.98;;;9.35;;
29196;SDS011;62796;42.654;23.316;2023-04-24T07:55:13;14.50;;;9.40;;
29196;SDS011;62796;42.654;23.316;2023-04-24T07:57:38;11.75;;;8.20;;
29196;SDS011;62796;42.654;23.316;2023-04-24T08:00:04;9.68;;;7.55;;
29196;SDS011;62796;42.654;23.316;2023-04-24T08:02:31;14.23;;;8.88;;
29196;SDS011;62796;42.654;23.316;2023-04-24T08:04:57;11.73;;;8.63;;
29196;SDS011;62796;42.654;23.316;2023-04-24T08:07:22;15.38;;;8.40;;
29196;SDS011;62796;42.654;23.316;2023-04-24T08:09:48;14.30;;;8.18;;
29196;SDS011;62796;42.654;23.316;2023-04-24T08:12:14;14.40;;;7.28;;
29196;SDS011;62796;42.654;23.316;2023-04-24T08:14:39;14.27;;;8.18;;
29196;SDS011;62796;42.654;23.316;2023-04-24T08:17:05;13.05;;;9.18;;
29196;SDS011;62796;42.654;23.316;2023-04-24T08:19:30;15.00;;;8.43;;
29196;SDS011;62796;42.654;23.316;2023-04-24T08:21:56;16.38;;;9.50;;
29196;SDS011;62796;42.654;23.316;2023-04-24T08:24:21;13.95;;;9.00;;
29196;SDS011;62796;42.654;23.316;2023-04-24T08:26:47;11.13;;;7.68;;
29196;SDS011;62796;42.654;23.316;2023-04-24T08:29:15;18.10;;;8.43;;
29196;SDS011;62796;42.654;23.316;2023-04-24T08:31:41;13.30;;;8.25;;
29196;SDS011;62796;42.654;23.316;2023-04-24T08:34:06;16.63;;;8.43;;
29196;SDS011;62796;42.654;23.316;2023-04-24T08:36:33;15.95;;;7.85;;
29196;SDS011;62796;42.654;23.316;2023-04-24T08:38:58;14.02;;;8.00;;
29196;SDS011;62796;42.654;23.316;2023-04-24T08:41:24;12.80;;;7.75;;
29196;SDS011;62796;42.654;23.316;2023-04-24T08:43:51;10.70;;;6.90;;
29196;SDS011;62796;42.654;23.316;2023-04-24T08:46:17;11.70;;;7.25;;
29196;SDS011;62796;42.654;23.316;2023-04-24T08:48:44;13.75;;;7.25;;
29196;SDS011;62796;42.654;23.316;2023-04-24T08:51:10;11.27;;;7.35;;
29196;SDS011;62796;42.654;23.316;2023-04-24T08:53:36;12.23;;;7.07;;
29196;SDS011;62796;42.654;23.316;2023-04-24T08:56:02;14.30;;;7.55;;
29196;SDS011;62796;42.654;23.316;2023-04-24T08:58:28;13.38;;;7.40;;
29196;SDS011;62796;42.654;23.316;2023-04-24T09:00:54;13.02;;;7.55;;
29196;SDS011;62796;42.654;23.316;2023-04-24T09:03:20;10.07;;;6.60;;
29196;SDS011;62796;42.654;23.316;2023-04-24T09:05:47;9.05;;;6.95;;
29196;SDS011;62796;42.654;23.316;2023-04-24T09:08:14;15.13;;;7.53;;
29196;SDS011;62796;42.654;23.316;2023-04-24T09:10:42;10.57;;;6.80;;
29196;SDS011;62796;42.654;23.316;2023-04-24T09:13:08;10.43;;;6.68;;
29196;SDS011;62796;42.654;23.316;2023-04-24T09:15:36;10.10;;;6.72;;
29196;SDS011;62796;42.654;23.316;2023-04-24T09:18:02;11.63;;;6.60;;
29196;SDS011;62796;42.654;23.316;2023-04-24T09:20:27;10.52;;;6.13;;
29196;SDS011;62796;42.654;23.316;2023-04-24T09:22:54;9.45;;;6.88;;
29196;SDS011;62796;42.654;23.316;2023-04-24T09:25:24;10.55;;;6.38;;
29196;SDS011;62796;42.654;23.316;2023-04-24T09:27:59;9.13;;;6.15;;
29196;SDS011;62796;42.654;23.316;2023-04-24T09:30:25;11.18;;;6.63;;
29196;SDS011;62796;42.654;23.316;2023-04-24T09:33:09;8.07;;;6.10;;
29196;SDS011;62796;42.654;23.316;2023-04-24T09:35:35;10.75;;;6.53;;
29196;SDS011;62796;42.654;23.316;2023-04-24T09:38:01;14.30;;;7.32;;
29196;SDS011;62796;42.654;23.316;2023-04-24T09:40:26;11.45;;;6.05;;
29196;SDS011;62796;42.654;23.316;2023-04-24T09:42:52;14.50;;;6.38;;
29196;SDS011;62796;42.654;23.316;2023-04-24T09:45:19;11.63;;;6.65;;
29196;SDS011;62796;42.654;23.316;2023-04-24T09:47:45;9.25;;;5.85;;
29196;SDS011;62796;42.654;23.316;2023-04-24T09:52:44;8.48;;;5.90;;
29196;SDS011;62796;42.654;23.316;2023-04-24T09:55:21;10.02;;;5.93;;
29196;SDS011;62796;42.654;23.316;2023-04-24T09:57:50;8.30;;;5.95;;
29196;SDS011;62796;42.654;23.316;2023-04-24T10:00:26;11.68;;;6.38;;
29196;SDS011;62796;42.654;23.316;2023-04-24T10:02:54;11.63;;;5.75;;
29196;SDS011;62796;42.654;23.316;2023-04-24T10:05:24;10.40;;;5.75;;
29196;SDS011;62796;42.654;23.316;2023-04-24T10:07:55;12.20;;;5.80;;
29196;SDS011;62796;42.654;23.316;2023-04-24T10:10:22;8.15;;;5.13;;
29196;SDS011;62796;42.654;23.316;2023-04-24T10:12:47;10.38;;;6.15;;
29196;SDS011;62796;42.654;23.316;2023-04-24T10:15:14;15.95;;;6.40;;
29196;SDS011;62796;42.654;23.316;2023-04-24T10:17:41;13.60;;;5.50;;
29196;SDS011;62796;42.654;23.316;2023-04-24T10:20:09;16.60;;;5.88;;
29196;SDS011;62796;42.654;23.316;2023-04-24T10:22:36;14.48;;;5.57;;
29196;SDS011;62796;42.654;23.316;2023-04-24T10:25:02;19.00;;;7.05;;
29196;SDS011;62796;42.654;23.316;2023-04-24T10:27:29;10.73;;;5.40;;
29196;SDS011;62796;42.654;23.316;2023-04-24T10:29:57;7.75;;;4.57;;
29196;SDS011;62796;42.654;23.316;2023-04-24T10:32:23;7.75;;;4.90;;
29196;SDS011;62796;42.654;23.316;2023-04-24T10:34:48;7.93;;;4.75;;
29196;SDS011;62796;42.654;23.316;2023-04-24T10:37:14;7.80;;;4.70;;
29196;SDS011;62796;42.654;23.316;2023-04-24T10:39:40;26.88;;;5.65;;
29196;SDS011;62796;42.654;23.316;2023-04-24T10:42:15;10.45;;;4.75;;
29196;SDS011;62796;42.654;23.316;2023-04-24T10:44:40;8.63;;;5.00;;
29196;SDS011;62796;42.654;23.316;2023-04-24T10:47:07;6.00;;;4.60;;
29196;SDS011;62796;42.654;23.316;2023-04-24T10:49:38;14.30;;;5.28;;
29196;SDS011;62796;42.654;23.316;2023-04-24T10:52:03;8.68;;;5.20;;
29196;SDS011;62796;42.654;23.316;2023-04-24T10:54:36;13.88;;;4.80;;
29196;SDS011;62796;42.654;23.316;2023-04-24T10:59:43;8.23;;;4.78;;
29196;SDS011;62796;42.654;23.316;2023-04-24T11:02:09;10.07;;;4.60;;
29196;SDS011;62796;42.654;23.316;2023-04-24T11:04:35;7.68;;;4.90;;
29196;SDS011;62796;42.654;23.316;2023-04-24T11:07:02;6.88;;;4.20;;
29196;SDS011;62796;42.654;23.316;2023-04-24T11:09:30;7.15;;;4.47;;
29196;SDS011;62796;42.654;23.316;2023-04-24T11:12:03;7.75;;;5.13;;
29196;SDS011;62796;42.654;23.316;2023-04-24T11:14:54;5.90;;;4.65;;
29196;SDS011;62796;42.654;23.316;2023-04-24T11:20:02;10.50;;;5.50;;
29196;SDS011;62796;42.654;23.316;2023-04-24T11:22:32;7.53;;;5.78;;
29196;SDS011;62796;42.654;23.316;2023-04-24T11:25:00;19.23;;;5.80;;
29196;SDS011;62796;42.654;23.316;2023-04-24T11:27:32;16.92;;;4.45;;
29196;SDS011;62796;42.654;23.316;2023-04-24T11:30:03;10.65;;;3.88;;
29196;SDS011;62796;42.654;23.316;2023-04-24T11:35:02;5.30;;;3.40;;
29196;SDS011;62796;42.654;23.316;2023-04-24T11:37:40;5.50;;;3.50;;
29196;SDS011;62796;42.654;23.316;2023-04-24T11:40:07;7.80;;;4.22;;
29196;SDS011;62796;42.654;23.316;2023-04-24T11:42:35;8.20;;;4.30;;
29196;SDS011;62796;42.654;23.316;2023-04-24T11:45:08;6.93;;;4.70;;
29196;SDS011;62796;42.654;23.316;2023-04-24T11:47:38;9.13;;;4.70;;
29196;SDS011;62796;42.654;23.316;2023-04-24T11:50:05;7.05;;;4.28;;
29196;SDS011;62796;42.654;23.316;2023-04-24T11:52:33;7.47;;;4.68;;
29196;SDS011;62796;42.654;23.316;2023-04-24T11:55:01;7.47;;;5.05;;
29196;SDS011;62796;42.654;23.316;2023-04-24T11:57:28;6.15;;;4.82;;
29196;SDS011;62796;42.654;23.316;2023-04-24T11:59:59;9.70;;;5.85;;
29196;SDS011;62796;42.654;23.316;2023-04-24T12:02:25;9.48;;;5.53;;
29196;SDS011;62796;42.654;23.316;2023-04-24T12:04:52;11.13;;;6.95;;
29196;SDS011;62796;42.654;23.316;2023-04-24T12:07:19;5.97;;;5.40;;
29196;SDS011;62796;42.654;23.316;2023-04-24T12:09:50;13.30;;;5.38;;
29196;SDS011;62796;42.654;23.316;2023-04-24T12:12:22;8.45;;;5.00;;
29196;SDS011;62796;42.654;23.316;2023-04-24T12:14:52;8.88;;;5.63;;
29196;SDS011;62796;42.654;23.316;2023-04-24T12:17:26;7.47;;;5.00;;
29196;SDS011;62796;42.654;23.316;2023-04-24T12:19:59;9.73;;;5.03;;
29196;SDS011;62796;42.654;23.316;2023-04-24T12:22:27;11.85;;;5.13;;
29196;SDS011;62796;42.654;23.316;2023-04-24T12:24:57;13.63;;;7.00;;
29196;SDS011;62796;42.654;23.316;2023-04-24T12:27:23;8.95;;;5.50;;
29196;SDS011;62796;42.654;23.316;2023-04-24T12:29:52;14.43;;;5.32;;
29196;SDS011;62796;42.654;23.316;2023-04-24T12:32:20;14.32;;;4.75;;
29196;SDS011;62796;42.654;23.316;2023-04-24T12:34:45;5.10;;;4.32;;
29196;SDS011;62796;42.654;23.316;2023-04-24T12:37:11;8.75;;;4.70;;
29196;SDS011;62796;42.654;23.316;2023-04-24T12:39:37;14.23;;;5.85;;
29196;SDS011;62796;42.654;23.316;2023-04-24T12:42:02;13.70;;;4.80;;
29196;SDS011;62796;42.654;23.316;2023-04-24T12:44:31;16.17;;;4.50;;
29196;SDS011;62796;42.654;23.316;2023-04-24T12:46:59;6.82;;;4.40;;
29196;SDS011;62796;42.654;23.316;2023-04-24T12:49:25;9.80;;;6.35;;
29196;SDS011;62796;42.654;23.316;2023-04-24T12:51:51;7.80;;;5.00;;
29196;SDS011;62796;42.654;23.316;2023-04-24T12:54:16;6.88;;;5.28;;
29196;SDS011;62796;42.654;23.316;2023-04-24T12:56:42;9.60;;;5.10;;
29196;SDS011;62796;42.654;23.316;2023-04-24T12:59:07;6.78;;;4.60;;
29196;SDS011;62796;42.654;23.316;2023-04-24T13:01:33;12.73;;;8.85;;
29196;SDS011;62796;42.654;23.316;2023-04-24T13:03:58;9.15;;;5.18;;
29196;SDS011;62796;42.654;23.316;2023-04-24T13:06:24;5.45;;;3.83;;
29196;SDS011;62796;42.654;23.316;2023-04-24T13:08:51;6.35;;;4.43;;
29196;SDS011;62796;42.654;23.316;2023-04-24T13:11:16;12.50;;;5.13;;
29196;SDS011;62796;42.654;23.316;2023-04-24T13:13:42;11.63;;;5.32;;
29196;SDS011;62796;42.654;23.316;2023-04-24T13:16:08;4.47;;;4.00;;
29196;SDS011;62796;42.654;23.316;2023-04-24T13:18:33;5.60;;;4.63;;
29196;SDS011;62796;42.654;23.316;2023-04-24T13:20:59;6.95;;;4.30;;
29196;SDS011;62796;42.654;23.316;2023-04-24T13:23:24;15.80;;;6.45;;
29196;SDS011;62796;42.654;23.316;2023-04-24T13:25:50;11.98;;;6.25;;
29196;SDS011;62796;42.654;23.316;2023-04-24T13:28:15;8.27;;;4.55;;
29196;SDS011;62796;42.654;23.316;2023-04-24T13:30:40;9.43;;;4.78;;
29196;SDS011;62796;42.654;23.316;2023-04-24T13:33:06;9.70;;;4.10;;
29196;SDS011;62796;42.654;23.316;2023-04-24T13:35:31;6.57;;;4.63;;
29196;SDS011;62796;42.654;23.316;2023-04-24T13:37:57;7.75;;;4.13;;
29196;SDS011;62796;42.654;23.316;2023-04-24T13:40:23;9.23;;;4.60;;
29196;SDS011;62796;42.654;23.316;2023-04-24T13:42:49;6.53;;;5.22;;
29196;SDS011;62796;42.654;23.316;2023-04-24T13:45:14;8.32;;;5.03;;
29196;SDS011;62796;42.654;23.316;2023-04-24T13:47:39;11.85;;;5.93;;
29196;SDS011;62796;42.654;23.316;2023-04-24T13:50:06;14.60;;;6.10;;
29196;SDS011;62796;42.654;23.316;2023-04-24T13:52:33;9.75;;;5.40;;
29196;SDS011;62796;42.654;23.316;2023-04-24T13:54:58;10.25;;;4.75;;
29196;SDS011;62796;42.654;23.316;2023-04-24T13:57:24;13.82;;;5.10;;
29196;SDS011;62796;42.654;23.316;2023-04-24T13:59:50;8.25;;;5.05;;
29196;SDS011;62796;42.654;23.316;2023-04-24T14:02:15;6.82;;;4.85;;
29196;SDS011;62796;42.654;23.316;2023-04-24T14:04:40;5.90;;;4.55;;
29196;SDS011;62796;42.654;23.316;2023-04-24T14:07:06;7.30;;;4.47;;
29196;SDS011;62796;42.654;23.316;2023-04-24T14:09:33;8.60;;;5.03;;
29196;SDS011;62796;42.654;23.316;2023-04-24T14:11:58;7.50;;;4.38;;
29196;SDS011;62796;42.654;23.316;2023-04-24T14:14:25;6.18;;;4.50;;
29196;SDS011;62796;42.654;23.316;2023-04-24T14:16:51;7.00;;;4.43;;
29196;SDS011;62796;42.654;23.316;2023-04-24T14:19:18;10.45;;;4.70;;
29196;SDS011;62796;42.654;23.316;2023-04-24T14:21:43;5.25;;;4.20;;
29196;SDS011;62796;42.654;23.316;2023-04-24T14:24:09;8.57;;;3.83;;